< < Back
Terminal Aerodrome Forecast


Current Version              Previous Versions:   1  2  3  4  5  6  7  8  9  

Terminal Aerodrome Forecast

457
FTUS42 KCAE 291700
TAFAGS
TAF
KAGS 291728Z 2918/3018 11005KT P6SM FEW050
     FM300900 00000KT 2SM BR SKC
      TEMPO 3009/3013 1/2SM FG SCT002
     FM301300 12004KT P6SM SCT050=

Latest METAR

657
SAUS70 KWBC 300000 RRE
MTRAGS
METAR KAGS 292353Z 00000KT 10SM CLR 27/19 A3002 RMK AO2 SLP164 T02670189
10356 20267 50001


USA.gov is the U.S. government's official web portal to all federal, state and local government web resources and services.